Matopos, Zimbabwe

5:26 PM CAT on July 24, 2017 (GMT +0200)
Bulawayo Woodvale | | Change Station

Elev 4350 ft 20.02 °S, 28.62 °E | Updated 2 hours ago

Clear
Clear
72 °F
Feels Like 72 °F
N
17
Wind Variable Wind from ESE

Today
High -- | Low -- °F
--% Chance of Precip.
Yesterday
High -- | Low -- °F
Precip. -- in
Pressure 30.33 in
Visibility -9999.0 miles
Clouds
Dew Point 39 °F
Humidity 31%
Rainfall 0.00 in
Snow Depth Not available.
6:39 AM 5:45 PM
New Moon, 2% visible
METAR FVBU 241300Z 11015KT 080V160 CAVOK 22/04 Q1027 NOSIG
Pressure 30.33 in
Visibility -9999.0 miles
Clouds
Dew Point 39 °F
Humidity 31%
Rainfall 0.00 in
Snow Depth Not available.
6:39 AM 5:45 PM
New Moon, 2% visible
METAR FVBU 241300Z 11015KT 080V160 CAVOK 22/04 Q1027 NOSIG

Get Severe Weather Alerts

Thanks for signing up!

Be on the lookout for a verification email in your inbox.

You'll start receiving the daily forecast at 6 AM.

×

10-Day Weather Forecast

No radar image for this location.
×

Almanac

Astronomy

Jul. 24, 2017 Rise Set
Actual Time
Civil Twilight
Nautical Twilight
Astronomical Twilight
Moon
Length of Visible Light
Length of Day
Tomorrow will be .
, % of the Moon is Illuminated

Today's Extremes

Country Highs Country Lows

Community

WunderPhotos

Category 6

Welcome to Category 6. This is the collective home for Weather Underground's featured writeups by Dr. Jeff Masters (right), Bob Henson (left), Chris Burt, and other regular contributors.

Nearby

Air Quality

  Air Quality AQ Index Pollutant
Not available.

Snow Depth

Station Depth Elevation

Earthquake Activity

City Distance Mag. Time & Date
Minimum magnitude displayed is 2.5.

Coastal Water Temperatures

Place Temperature

Stations

Nearby Weather Stations

Station Location Temp. Windchill Dew Point Humidity Wind Precip. Elev Updated Type